createdAt,value
2019-05-21T00:00:40.940Z,999.98
2019-05-21T00:01:40.968Z,1000.00
2019-05-21T00:02:40.993Z,999.99
2019-05-21T00:03:41.017Z,999.99
2019-05-21T00:04:41.055Z,999.94
2019-05-21T00:05:41.070Z,999.94
2019-05-21T00:06:41.099Z,999.97
2019-05-21T00:07:41.134Z,999.97
2019-05-21T00:08:41.151Z,999.97
2019-05-21T00:09:41.176Z,999.98
2019-05-21T00:10:41.202Z,999.98
2019-05-21T00:11:41.231Z,999.96
2019-05-21T00:12:41.260Z,999.97
2019-05-21T00:13:41.286Z,1000.00
2019-05-21T00:14:41.308Z,999.98
2019-05-21T00:15:41.338Z,999.97
2019-05-21T00:16:41.367Z,999.99
2019-05-21T00:17:41.390Z,999.98
2019-05-21T00:18:41.413Z,1000.03
2019-05-21T00:19:41.444Z,1000.03
2019-05-21T00:20:41.484Z,1000.03
2019-05-21T00:21:41.492Z,1000.02
2019-05-21T00:22:41.525Z,1000.08
2019-05-21T00:23:41.557Z,1000.06
2019-05-21T00:24:41.592Z,1000.11
2019-05-21T00:25:41.600Z,1000.14
2019-05-21T00:26:41.623Z,1000.13
2019-05-21T00:27:41.655Z,1000.14
2019-05-21T00:28:41.681Z,1000.12
2019-05-21T00:29:41.704Z,1000.15
2019-05-21T00:30:41.728Z,1000.12
2019-05-21T00:31:41.759Z,1000.14
2019-05-21T00:32:41.782Z,1000.14
2019-05-21T00:33:41.816Z,1000.16
2019-05-21T00:34:44.252Z,1000.19
2019-05-21T00:35:41.865Z,1000.19
2019-05-21T00:36:41.905Z,1000.21
2019-05-21T00:37:41.916Z,1000.19
2019-05-21T00:38:41.942Z,1000.20
2019-05-21T00:39:41.974Z,1000.21
2019-05-21T00:40:41.994Z,1000.21
2019-05-21T00:41:42.042Z,1000.21
2019-05-21T00:42:42.052Z,1000.22
2019-05-21T00:43:42.080Z,1000.22
2019-05-21T00:44:42.101Z,1000.23
2019-05-21T00:45:42.124Z,1000.25
2019-05-21T00:46:42.151Z,1000.25
2019-05-21T00:47:42.177Z,1000.27
2019-05-21T00:48:42.211Z,1000.28
2019-05-21T00:49:42.235Z,1000.26
2019-05-21T00:50:42.256Z,1000.29
2019-05-21T00:51:42.286Z,1000.30
2019-05-21T00:52:42.308Z,1000.34
2019-05-21T00:53:42.334Z,1000.30
2019-05-21T00:54:42.365Z,1000.31
2019-05-21T00:55:42.387Z,1000.31
2019-05-21T00:56:42.414Z,1000.27
2019-05-21T00:57:42.439Z,1000.28
2019-05-21T00:58:42.468Z,1000.31
2019-05-21T00:59:42.494Z,1000.30
2019-05-21T01:00:42.520Z,1000.28
2019-05-21T01:01:42.554Z,1000.26
2019-05-21T01:02:42.578Z,1000.25
2019-05-21T01:03:43.381Z,1000.29
2019-05-21T01:04:42.627Z,1000.25
2019-05-21T01:05:42.666Z,1000.27
2019-05-21T01:06:42.690Z,1000.26
2019-05-21T01:07:42.704Z,1000.29
2019-05-21T01:08:42.734Z,1000.30
2019-05-21T01:09:42.754Z,1000.29
2019-05-21T01:10:42.782Z,1000.30
2019-05-21T01:11:42.806Z,1000.30
2019-05-21T01:12:42.838Z,1000.31
2019-05-21T01:13:42.871Z,1000.29
2019-05-21T01:14:42.884Z,1000.32
2019-05-21T01:15:42.918Z,1000.32
2019-05-21T01:16:42.944Z,1000.32
2019-05-21T01:17:42.970Z,1000.28
2019-05-21T01:18:43.011Z,1000.29
2019-05-21T01:19:43.022Z,1000.31
2019-05-21T01:20:43.054Z,1000.31
2019-05-21T01:21:43.078Z,1000.27
2019-05-21T01:22:43.136Z,1000.31
2019-05-21T01:23:43.139Z,1000.28
2019-05-21T01:24:43.150Z,1000.28
2019-05-21T01:25:43.186Z,1000.28
2019-05-21T01:26:43.204Z,1000.30
2019-05-21T01:27:43.232Z,1000.32
2019-05-21T01:28:43.258Z,1000.28
2019-05-21T01:29:43.291Z,1000.29
2019-05-21T01:30:43.313Z,1000.27
2019-05-21T01:31:43.334Z,1000.26
2019-05-21T01:32:43.358Z,1000.26
2019-05-21T01:33:43.386Z,1000.25
2019-05-21T01:34:43.414Z,1000.25
2019-05-21T01:35:43.449Z,1000.27
2019-05-21T01:36:43.465Z,1000.26
2019-05-21T01:37:43.493Z,1000.28
2019-05-21T01:38:43.601Z,1000.22
2019-05-21T01:39:43.544Z,1000.20
2019-05-21T01:40:43.571Z,1000.19
2019-05-21T01:41:43.601Z,1000.23
2019-05-21T01:42:43.621Z,1000.19
2019-05-21T01:43:43.659Z,1000.20
2019-05-21T01:44:43.679Z,1000.19
2019-05-21T01:45:43.704Z,1000.19
2019-05-21T01:46:43.740Z,1000.19
2019-05-21T01:47:43.752Z,1000.15
2019-05-21T01:48:43.784Z,1000.14
2019-05-21T01:49:43.812Z,1000.13
2019-05-21T01:50:43.833Z,1000.15
2019-05-21T01:51:43.876Z,1000.18
2019-05-21T01:52:43.957Z,1000.17
2019-05-21T01:53:43.913Z,1000.17
2019-05-21T01:54:43.933Z,1000.12
2019-05-21T01:55:43.967Z,1000.12
2019-05-21T01:56:43.992Z,1000.09
2019-05-21T01:57:44.018Z,1000.12
2019-05-21T01:58:44.040Z,1000.11
2019-05-21T01:59:44.069Z,1000.12
2019-05-21T02:00:44.101Z,1000.16
2019-05-21T02:01:44.122Z,1000.12
2019-05-21T02:02:44.153Z,1000.15
2019-05-21T02:03:44.173Z,1000.18
2019-05-21T02:04:44.256Z,1000.15
2019-05-21T02:05:44.228Z,1000.19
2019-05-21T02:06:44.247Z,1000.16
2019-05-21T02:07:44.277Z,1000.17
2019-05-21T02:08:44.305Z,1000.16
2019-05-21T02:09:44.331Z,1000.20
2019-05-21T02:10:44.359Z,1000.20
2019-05-21T02:11:44.384Z,1000.23
2019-05-21T02:12:44.413Z,1000.26
2019-05-21T02:13:44.439Z,1000.29
2019-05-21T02:14:44.466Z,1000.30
2019-05-21T02:15:44.486Z,1000.26
2019-05-21T02:16:44.520Z,1000.23
2019-05-21T02:17:44.538Z,1000.27
2019-05-21T02:18:44.567Z,1000.24
2019-05-21T02:19:44.598Z,1000.27
2019-05-21T02:20:44.617Z,1000.23
2019-05-21T02:21:44.640Z,1000.26
2019-05-21T02:22:44.669Z,1000.27
2019-05-21T02:23:44.701Z,1000.26
2019-05-21T02:24:44.723Z,1000.23
2019-05-21T02:25:44.747Z,1000.27
2019-05-21T02:26:44.776Z,1000.26
2019-05-21T02:27:44.806Z,1000.27
2019-05-21T02:28:44.830Z,1000.31
2019-05-21T02:29:44.860Z,1000.25
2019-05-21T02:30:44.883Z,1000.27
2019-05-21T02:31:44.923Z,1000.26
2019-05-21T02:32:44.929Z,1000.26
2019-05-21T02:33:44.960Z,1000.27
2019-05-21T02:34:44.987Z,1000.33
2019-05-21T02:35:54.049Z,1000.35
2019-05-21T02:36:45.038Z,1000.36
2019-05-21T02:37:45.061Z,1000.38
2019-05-21T02:38:45.149Z,1000.42
2019-05-21T02:39:45.121Z,1000.44
2019-05-21T02:40:45.152Z,1000.45
2019-05-21T02:41:45.178Z,1000.43
2019-05-21T02:42:45.205Z,1000.41
2019-05-21T02:43:45.262Z,1000.44
2019-05-21T02:44:45.247Z,1000.40
2019-05-21T02:45:45.275Z,1000.44
2019-05-21T02:46:45.296Z,1000.47
2019-05-21T02:47:45.324Z,1000.47
2019-05-21T02:48:45.349Z,1000.45
2019-05-21T02:49:45.375Z,1000.46
2019-05-21T02:50:45.403Z,1000.49
2019-05-21T02:51:45.454Z,1000.50
2019-05-21T02:52:45.453Z,1000.50
2019-05-21T02:53:45.483Z,1000.50
2019-05-21T02:54:45.510Z,1000.50
2019-05-21T02:55:45.532Z,1000.53
2019-05-21T02:56:45.577Z,1000.55
2019-05-21T02:57:45.591Z,1000.58
2019-05-21T02:58:45.621Z,1000.57
2019-05-21T02:59:45.643Z,1000.59
2019-05-21T03:00:45.662Z,1000.60
2019-05-21T03:01:45.693Z,1000.59
2019-05-21T03:02:45.722Z,1000.60
2019-05-21T03:03:45.739Z,1000.63
2019-05-21T03:04:45.771Z,1000.67
2019-05-21T03:05:45.793Z,1000.68
2019-05-21T03:06:45.838Z,1000.70
2019-05-21T03:07:45.843Z,1000.69
2019-05-21T03:08:45.868Z,1000.67
2019-05-21T03:09:45.903Z,1000.70
2019-05-21T03:10:45.934Z,1000.73
2019-05-21T03:11:45.946Z,1000.74
2019-05-21T03:12:45.975Z,1000.70
2019-05-21T03:13:45.997Z,1000.72
2019-05-21T03:14:46.030Z,1000.75
2019-05-21T03:15:46.059Z,1000.72
2019-05-21T03:16:46.079Z,1000.74
2019-05-21T03:17:46.100Z,1000.75
2019-05-21T03:18:46.152Z,1000.78
2019-05-21T03:19:46.154Z,1000.77
2019-05-21T03:20:46.185Z,1000.80
2019-05-21T03:21:46.209Z,1000.76
2019-05-21T03:22:46.234Z,1000.77
2019-05-21T03:23:46.273Z,1000.78
2019-05-21T03:24:46.293Z,1000.77
2019-05-21T03:25:46.312Z,1000.77
2019-05-21T03:26:46.337Z,1000.76
2019-05-21T03:27:46.364Z,1000.76
2019-05-21T03:28:46.391Z,1000.77
2019-05-21T03:29:46.423Z,1000.79
2019-05-21T03:30:46.442Z,1000.80
2019-05-21T03:31:46.471Z,1000.80
2019-05-21T03:32:46.502Z,1000.80
2019-05-21T03:33:46.521Z,1000.79
2019-05-21T03:34:46.545Z,1000.83
2019-05-21T03:35:46.589Z,1000.83
2019-05-21T03:36:46.597Z,1000.87
2019-05-21T03:37:46.628Z,1000.87
2019-05-21T03:38:46.651Z,1000.90
2019-05-21T03:39:46.673Z,1000.87
2019-05-21T03:40:46.703Z,1000.91
2019-05-21T03:41:46.727Z,1000.90
2019-05-21T03:42:46.752Z,1000.91
2019-05-21T03:43:46.786Z,1000.91
2019-05-21T03:44:58.925Z,1000.94
2019-05-21T03:45:46.828Z,1000.94
2019-05-21T03:46:46.876Z,1000.96
2019-05-21T03:47:46.891Z,1001.02
2019-05-21T03:48:46.945Z,1001.04
2019-05-21T03:49:46.937Z,1001.05
2019-05-21T03:50:46.961Z,1001.06
2019-05-21T03:51:46.989Z,1001.08
2019-05-21T03:52:47.012Z,1001.06
2019-05-21T03:53:47.037Z,1001.06
2019-05-21T03:54:47.069Z,1001.04
2019-05-21T03:55:47.085Z,1001.02
2019-05-21T03:56:47.116Z,1001.05
2019-05-21T03:57:47.143Z,1001.01
2019-05-21T03:58:47.174Z,1001.03
2019-05-21T03:59:47.193Z,1001.00
2019-05-21T04:00:47.231Z,1001.02
2019-05-21T04:01:47.254Z,1001.03
2019-05-21T04:02:47.280Z,1001.03
2019-05-21T04:03:47.299Z,1000.99
2019-05-21T04:04:47.328Z,1000.95
2019-05-21T04:05:47.361Z,1000.97
2019-05-21T04:06:51.856Z,1000.97
2019-05-21T04:07:47.402Z,1000.98
2019-05-21T04:08:47.430Z,1000.97
2019-05-21T04:09:47.462Z,1001.01
2019-05-21T04:10:47.481Z,1001.02
2019-05-21T04:11:47.504Z,1001.01
2019-05-21T04:12:47.531Z,1001.03
2019-05-21T04:13:47.562Z,1001.07
2019-05-21T04:14:47.586Z,1001.07
2019-05-21T04:15:47.612Z,1001.04
2019-05-21T04:16:47.635Z,1001.01
2019-05-21T04:17:47.661Z,1001.02
2019-05-21T04:18:47.686Z,1000.99
2019-05-21T04:19:47.713Z,1000.98
2019-05-21T04:20:47.746Z,1001.00
2019-05-21T04:21:47.772Z,1001.01
2019-05-21T04:22:47.792Z,1001.02
2019-05-21T04:23:47.824Z,1001.05
2019-05-21T04:24:47.840Z,1001.06
2019-05-21T04:25:47.871Z,1001.09
2019-05-21T04:26:47.903Z,1001.08
2019-05-21T04:27:47.926Z,1001.15
2019-05-21T04:28:47.944Z,1001.12
2019-05-21T04:29:47.979Z,1001.17
2019-05-21T04:30:47.997Z,1001.15
2019-05-21T04:31:48.028Z,1001.12
2019-05-21T04:32:48.050Z,1001.10
2019-05-21T04:33:48.076Z,1001.10
2019-05-21T04:34:48.104Z,1001.05
2019-05-21T04:35:48.126Z,1001.04
2019-05-21T04:36:48.153Z,1001.04
2019-05-21T04:37:48.180Z,1001.01
2019-05-21T04:38:48.253Z,1001.01
2019-05-21T04:39:48.269Z,1001.03
2019-05-21T04:40:48.274Z,1001.01
2019-05-21T04:41:48.287Z,1001.02
2019-05-21T04:42:48.317Z,1001.08
2019-05-21T04:43:48.345Z,1001.11
2019-05-21T04:44:48.378Z,1001.11
2019-05-21T04:45:48.384Z,1001.12
2019-05-21T04:46:48.420Z,1001.16
2019-05-21T04:47:48.442Z,1001.17
2019-05-21T04:48:48.469Z,1001.16
2019-05-21T04:49:48.511Z,1001.17
2019-05-21T04:50:48.521Z,1001.17
2019-05-21T04:51:48.554Z,1001.18
2019-05-21T04:52:48.572Z,1001.15
2019-05-21T04:53:48.600Z,1001.15
2019-05-21T04:54:48.632Z,1001.15
2019-05-21T04:55:48.647Z,1001.20
2019-05-21T04:56:48.673Z,1001.16
2019-05-21T04:57:48.716Z,1001.14
2019-05-21T04:58:48.760Z,1001.15
2019-05-21T04:59:48.764Z,1001.16
2019-05-21T05:00:48.780Z,1001.20
2019-05-21T05:01:48.805Z,1001.15
2019-05-21T05:02:48.831Z,1001.14
2019-05-21T05:03:48.862Z,1001.14
2019-05-21T05:04:48.883Z,1001.14
2019-05-21T05:05:48.919Z,1001.16
2019-05-21T05:06:48.933Z,1001.13
2019-05-21T05:07:48.970Z,1001.18
2019-05-21T05:08:49.007Z,1001.14
2019-05-21T05:09:49.018Z,1001.17
2019-05-21T05:10:49.500Z,1001.20
2019-05-21T05:11:49.067Z,1001.20
2019-05-21T05:12:49.093Z,1001.19
2019-05-21T05:13:49.135Z,1001.22
2019-05-21T05:14:49.143Z,1001.22
2019-05-21T05:15:49.173Z,1001.23
2019-05-21T05:16:49.206Z,1001.25
2019-05-21T05:17:49.236Z,1001.23
2019-05-21T05:18:49.258Z,1001.25
2019-05-21T05:19:49.274Z,1001.24
2019-05-21T05:20:49.310Z,1001.24
2019-05-21T05:21:49.327Z,1001.25
2019-05-21T05:22:49.358Z,1001.22
2019-05-21T05:23:49.379Z,1001.19
2019-05-21T05:24:49.410Z,1001.17
2019-05-21T05:25:49.433Z,1001.16
2019-05-21T05:26:49.465Z,1001.15
2019-05-21T05:27:49.481Z,1001.20
2019-05-21T05:28:49.505Z,1001.22
2019-05-21T05:29:49.555Z,1001.24
2019-05-21T05:30:49.563Z,1001.23
2019-05-21T05:31:49.587Z,1001.25
2019-05-21T05:32:49.621Z,1001.27
2019-05-21T05:33:49.639Z,1001.23
2019-05-21T05:34:49.672Z,1001.25
2019-05-21T05:35:49.692Z,1001.24
2019-05-21T05:36:49.717Z,1001.26
2019-05-21T05:37:49.741Z,1001.31
2019-05-21T05:38:49.772Z,1001.30
2019-05-21T05:39:49.805Z,1001.29
2019-05-21T05:40:49.823Z,1001.30
2019-05-21T05:41:49.849Z,1001.31
2019-05-21T05:42:49.875Z,1001.29
2019-05-21T05:43:49.902Z,1001.31
2019-05-21T05:44:49.932Z,1001.28
2019-05-21T05:45:49.959Z,1001.26
2019-05-21T05:46:49.981Z,1001.30
2019-05-21T05:47:50.010Z,1001.29
2019-05-21T05:48:50.030Z,1001.29
2019-05-21T05:49:50.059Z,1001.34
2019-05-21T05:50:50.085Z,1001.35
2019-05-21T05:51:50.113Z,1001.38
2019-05-21T05:52:50.138Z,1001.41
2019-05-21T05:53:50.163Z,1001.38
2019-05-21T05:54:50.234Z,1001.37
2019-05-21T05:55:50.215Z,1001.41
2019-05-21T05:56:50.244Z,1001.41
2019-05-21T05:57:50.266Z,1001.39
2019-05-21T05:58:50.297Z,1001.42
2019-05-21T05:59:50.339Z,1001.42
2019-05-21T06:00:50.348Z,1001.42
2019-05-21T06:01:50.402Z,1001.44
2019-05-21T06:02:50.397Z,1001.43
2019-05-21T06:03:50.433Z,1001.46
2019-05-21T06:04:50.456Z,1001.46
2019-05-21T06:05:50.479Z,1001.43
2019-05-21T06:06:50.506Z,1001.45
2019-05-21T06:07:59.366Z,1001.47
2019-05-21T06:08:50.561Z,1001.46
2019-05-21T06:09:50.587Z,1001.47
2019-05-21T06:10:50.611Z,1001.47
2019-05-21T06:11:50.641Z,1001.46
2019-05-21T06:12:50.713Z,1001.45
2019-05-21T06:13:50.702Z,1001.45
2019-05-21T06:14:50.718Z,1001.43
2019-05-21T06:15:50.755Z,1001.42
2019-05-21T06:16:50.768Z,1001.40
2019-05-21T06:17:50.794Z,1001.37
2019-05-21T06:18:50.826Z,1001.41
2019-05-21T06:19:50.853Z,1001.38
2019-05-21T06:20:50.873Z,1001.40
2019-05-21T06:21:50.905Z,1001.36
2019-05-21T06:22:50.932Z,1001.40
2019-05-21T06:23:50.953Z,1001.39
2019-05-21T06:24:50.977Z,1001.41
2019-05-21T06:25:51.009Z,1001.39
2019-05-21T06:26:51.030Z,1001.38
2019-05-21T06:27:51.072Z,1001.38
2019-05-21T06:28:51.082Z,1001.35
2019-05-21T06:29:51.114Z,1001.33
2019-05-21T06:30:51.141Z,1001.37
2019-05-21T06:31:51.174Z,1001.38
2019-05-21T06:32:51.190Z,1001.37
2019-05-21T06:33:51.245Z,1001.39
2019-05-21T06:34:51.245Z,1001.36
2019-05-21T06:35:51.312Z,1001.33
2019-05-21T06:36:51.297Z,1001.35
2019-05-21T06:37:51.324Z,1001.37
2019-05-21T06:38:51.350Z,1001.35
2019-05-21T06:39:51.374Z,1001.39
2019-05-21T06:40:51.398Z,1001.41
2019-05-21T06:41:51.428Z,1001.45
2019-05-21T06:42:51.462Z,1001.48
2019-05-21T06:43:51.493Z,1001.45
2019-05-21T06:44:51.514Z,1001.48
2019-05-21T06:45:51.532Z,1001.48
2019-05-21T06:46:51.564Z,1001.48
2019-05-21T06:47:51.584Z,1001.51
2019-05-21T06:48:51.615Z,1001.52
2019-05-21T06:49:51.641Z,1001.52
2019-05-21T06:50:51.671Z,1001.51
2019-05-21T06:51:51.690Z,1001.53
2019-05-21T06:52:51.727Z,1001.52
2019-05-21T06:53:51.744Z,1001.54
2019-05-21T06:54:51.776Z,1001.53
2019-05-21T06:55:51.797Z,1001.54
2019-05-21T06:56:51.839Z,1001.56
2019-05-21T06:57:51.847Z,1001.61
2019-05-21T06:58:51.884Z,1001.60
2019-05-21T06:59:51.901Z,1001.63
2019-05-21T07:00:51.969Z,1001.65
2019-05-21T07:01:51.956Z,1001.61
2019-05-21T07:02:51.992Z,1001.60
2019-05-21T07:03:52.034Z,1001.59
2019-05-21T07:04:52.045Z,1001.58
2019-05-21T07:05:58.727Z,1001.56
2019-05-21T07:06:52.089Z,1001.57
2019-05-21T07:07:52.123Z,1001.58
2019-05-21T07:08:52.145Z,1001.58
2019-05-21T07:09:52.182Z,1001.58
2019-05-21T07:10:52.210Z,1001.60
2019-05-21T07:11:52.237Z,1001.62
2019-05-21T07:12:52.262Z,1001.62
2019-05-21T07:13:52.274Z,1001.63
2019-05-21T07:14:52.312Z,1001.63
2019-05-21T07:15:52.338Z,1001.63
2019-05-21T07:16:52.370Z,1001.63
2019-05-21T07:17:52.414Z,1001.67
2019-05-21T07:18:52.475Z,1001.67
2019-05-21T07:19:52.451Z,1001.68
2019-05-21T07:20:52.467Z,1001.70
2019-05-21T07:21:52.483Z,1001.71
2019-05-21T07:22:52.691Z,1001.70
2019-05-21T07:23:52.543Z,1001.68
2019-05-21T07:24:52.581Z,1001.66
2019-05-21T07:25:52.600Z,1001.68
2019-05-21T07:26:52.678Z,1001.72
2019-05-21T07:27:52.643Z,1001.73
2019-05-21T07:28:54.420Z,1001.71
2019-05-21T07:29:52.706Z,1001.75
2019-05-21T07:30:52.745Z,1001.73
2019-05-21T07:32:17.901Z,1001.78
2019-05-21T07:32:56.969Z,1001.77
2019-05-21T07:33:52.811Z,1001.77
2019-05-21T07:34:52.838Z,1001.78
2019-05-21T07:35:52.873Z,1001.76
2019-05-21T07:36:52.895Z,1001.79
2019-05-21T07:37:52.943Z,1001.78
2019-05-21T07:38:54.242Z,1001.79
2019-05-21T07:39:52.973Z,1001.78
2019-05-21T07:40:53.024Z,1001.81
2019-05-21T07:41:53.028Z,1001.80
2019-05-21T07:42:53.069Z,1001.80
2019-05-21T07:43:53.076Z,1001.84
2019-05-21T07:44:53.107Z,1001.83
2019-05-21T07:45:53.131Z,1001.85
2019-05-21T07:46:53.169Z,1001.82
2019-05-21T07:47:53.186Z,1001.80
2019-05-21T07:48:53.279Z,1001.82
2019-05-21T07:49:53.259Z,1001.84
2019-05-21T07:50:53.291Z,1001.80
2019-05-21T07:51:53.296Z,1001.85
2019-05-21T07:52:53.329Z,1001.79
2019-05-21T07:53:53.372Z,1001.81
2019-05-21T07:54:53.373Z,1001.81
2019-05-21T07:55:53.397Z,1001.81
2019-05-21T07:56:53.662Z,1001.81
2019-05-21T07:57:53.500Z,1001.78
2019-05-21T07:58:53.479Z,1001.84
2019-05-21T07:59:53.529Z,1001.83
2019-05-21T08:00:53.612Z,1001.87
2019-05-21T08:01:53.575Z,1001.88
2019-05-21T08:02:53.581Z,1001.91
2019-05-21T08:03:53.683Z,1001.92
2019-05-21T08:04:53.641Z,1001.97
2019-05-21T08:05:53.675Z,1001.95
2019-05-21T08:06:53.699Z,1001.91
2019-05-21T08:07:53.720Z,1001.94
2019-05-21T08:09:11.772Z,1001.93
2019-05-21T08:09:53.774Z,1001.93
2019-05-21T08:10:53.790Z,1001.96
2019-05-21T08:11:53.920Z,1001.95
2019-05-21T08:12:53.877Z,1001.94
2019-05-21T08:13:53.886Z,1001.94
2019-05-21T08:14:53.930Z,1001.91
2019-05-21T08:15:53.958Z,1001.92
2019-05-21T08:16:53.975Z,1001.92
2019-05-21T08:17:53.981Z,1001.95
2019-05-21T08:18:54.043Z,1001.98
2019-05-21T08:19:54.034Z,1002.00
2019-05-21T08:20:54.078Z,1002.03
2019-05-21T08:21:54.090Z,1002.03
2019-05-21T08:22:54.118Z,1002.06
2019-05-21T08:23:54.188Z,1002.06
2019-05-21T08:24:54.182Z,1002.07
2019-05-21T08:25:54.205Z,1002.07
2019-05-21T08:26:54.236Z,1002.11
2019-05-21T08:27:54.261Z,1002.09
2019-05-21T08:28:54.463Z,1002.08
2019-05-21T08:29:54.326Z,1002.09
2019-05-21T08:30:54.354Z,1002.06
2019-05-21T08:31:54.368Z,1002.08
2019-05-21T08:32:54.383Z,1002.06
2019-05-21T08:33:54.413Z,1002.09
2019-05-21T08:34:54.446Z,1002.07
2019-05-21T08:35:54.477Z,1002.09
2019-05-21T08:36:54.491Z,1002.09
2019-05-21T08:37:54.524Z,1002.10
2019-05-21T08:38:54.570Z,1002.14
2019-05-21T08:39:54.586Z,1002.14
2019-05-21T08:40:54.609Z,1002.16
2019-05-21T08:41:54.625Z,1002.19
2019-05-21T08:42:54.670Z,1002.16
2019-05-21T08:43:54.702Z,1002.17
2019-05-21T08:44:54.707Z,1002.17
2019-05-21T08:45:54.743Z,1002.16
2019-05-21T08:46:54.771Z,1002.18
2019-05-21T08:47:54.800Z,1002.14
2019-05-21T08:48:54.817Z,1002.15
2019-05-21T08:49:54.843Z,1002.14
2019-05-21T08:50:54.890Z,1002.13
2019-05-21T08:51:54.903Z,1002.15
2019-05-21T08:52:54.926Z,1002.13
2019-05-21T08:53:54.955Z,1002.14
2019-05-21T08:54:56.425Z,1002.18
2019-05-21T08:55:55.030Z,1002.16
2019-05-21T08:56:55.032Z,1002.16
2019-05-21T08:58:06.425Z,1002.19
2019-05-21T08:58:55.103Z,1002.18
2019-05-21T09:00:55.179Z,1002.20
2019-05-21T09:02:16.204Z,1002.22
2019-05-21T09:02:55.213Z,1002.28
2019-05-21T09:03:55.250Z,1002.24
2019-05-21T09:04:55.267Z,1002.26
2019-05-21T09:05:55.328Z,1002.24
2019-05-21T09:06:55.354Z,1002.23
2019-05-21T09:07:55.351Z,1002.24
2019-05-21T09:08:55.382Z,1002.24
2019-05-21T09:09:55.398Z,1002.26
2019-05-21T09:10:55.412Z,1002.28
2019-05-21T09:11:55.479Z,1002.29
2019-05-21T09:12:55.499Z,1002.28
2019-05-21T09:13:55.506Z,1002.32
2019-05-21T09:14:55.523Z,1002.35
2019-05-21T09:15:55.590Z,1002.35
2019-05-21T09:16:55.584Z,1002.34
2019-05-21T09:17:55.622Z,1002.31
2019-05-21T09:18:55.644Z,1002.32
2019-05-21T09:19:55.665Z,1002.34
2019-05-21T09:20:55.686Z,1002.37
2019-05-21T09:21:55.720Z,1002.40
2019-05-21T09:22:55.742Z,1002.40
2019-05-21T09:23:55.768Z,1002.40
2019-05-21T09:24:55.800Z,1002.41
2019-05-21T09:25:55.824Z,1002.37
2019-05-21T09:26:55.864Z,1002.40
2019-05-21T09:27:55.877Z,1002.37
2019-05-21T09:28:55.911Z,1002.47
2019-05-21T09:29:55.937Z,1002.46
2019-05-21T09:30:55.961Z,1002.51
2019-05-21T09:31:55.993Z,1002.43
2019-05-21T09:32:56.017Z,1002.48
2019-05-21T09:33:56.043Z,1002.46
2019-05-21T09:34:56.078Z,1002.39
2019-05-21T09:35:56.099Z,1002.41
2019-05-21T09:36:56.130Z,1002.49
2019-05-21T09:37:56.180Z,1002.47
2019-05-21T09:38:56.182Z,1002.44
2019-05-21T09:39:56.224Z,1002.49
2019-05-21T09:40:56.240Z,1002.43
2019-05-21T09:41:56.269Z,1002.46
2019-05-21T09:42:56.292Z,1002.47
2019-05-21T09:43:56.339Z,1002.59
2019-05-21T09:44:56.353Z,1002.64
2019-05-21T09:45:56.381Z,1002.65
2019-05-21T09:46:56.412Z,1002.64
2019-05-21T09:47:56.439Z,1002.43
2019-05-21T09:48:56.463Z,1002.45
2019-05-21T09:49:56.491Z,1002.47
2019-05-21T09:50:56.521Z,1002.49
2019-05-21T09:51:56.545Z,1002.45
2019-05-21T09:52:56.575Z,1002.52
2019-05-21T09:53:56.600Z,1002.56
2019-05-21T09:54:56.632Z,1002.48
2019-05-21T09:55:56.659Z,1002.47
2019-05-21T09:56:56.689Z,1002.58
2019-05-21T09:57:56.716Z,1002.67
2019-05-21T09:58:56.750Z,1002.66
2019-05-21T09:59:56.770Z,1002.67
2019-05-21T10:00:56.801Z,1002.70
2019-05-21T10:01:56.829Z,1002.69
2019-05-21T10:02:56.852Z,1002.72
2019-05-21T10:03:56.891Z,1002.70
2019-05-21T10:04:56.931Z,1002.64
2019-05-21T10:05:56.936Z,1002.73
2019-05-21T10:06:56.979Z,1002.73
2019-05-21T10:07:56.999Z,1002.74
2019-05-21T10:08:57.027Z,1002.71
2019-05-21T10:09:57.057Z,1002.78
2019-05-21T10:10:57.083Z,1002.76
2019-05-21T10:11:57.110Z,1002.75
2019-05-21T10:12:57.145Z,1002.72
2019-05-21T10:13:57.177Z,1002.74
2019-05-21T10:14:57.204Z,1002.77
2019-05-21T10:16:01.196Z,1002.79
2019-05-21T10:16:57.269Z,1002.56
2019-05-21T10:17:57.299Z,1002.55
2019-05-21T10:18:57.412Z,1002.59
2019-05-21T10:19:58.984Z,1002.58
2019-05-21T10:20:57.383Z,1002.56
2019-05-21T10:21:57.427Z,1002.58
2019-05-21T10:22:57.449Z,1002.57
2019-05-21T10:23:57.477Z,1002.73
2019-05-21T10:24:57.535Z,1002.72
2019-05-21T10:25:57.553Z,1002.62
2019-05-21T10:26:57.591Z,1002.65
2019-05-21T10:27:57.602Z,1002.58
2019-05-21T10:28:57.631Z,1002.60
2019-05-21T10:29:57.669Z,1002.62
2019-05-21T10:30:57.691Z,1002.77
2019-05-21T10:31:57.719Z,1002.72
2019-05-21T10:32:57.751Z,1002.68
2019-05-21T10:33:57.787Z,1002.67
2019-05-21T10:34:57.826Z,1002.66
2019-05-21T10:35:57.843Z,1002.62
2019-05-21T10:36:57.871Z,1002.71
2019-05-21T10:37:57.922Z,1002.72
2019-05-21T10:38:57.934Z,1002.73
2019-05-21T10:39:57.991Z,1002.74
2019-05-21T10:40:57.997Z,1002.70
2019-05-21T10:41:58.021Z,1002.67
2019-05-21T10:42:58.057Z,1002.82
2019-05-21T10:43:58.084Z,1002.80
2019-05-21T10:44:58.119Z,1002.83
2019-05-21T10:45:58.149Z,1002.84
2019-05-21T10:46:58.197Z,1002.84
2019-05-21T10:47:58.222Z,1002.83
2019-05-21T10:48:58.245Z,1002.81
2019-05-21T10:49:58.276Z,1002.81
2019-05-21T10:50:58.324Z,1002.86
2019-05-21T10:51:58.348Z,1002.81
2019-05-21T10:52:58.378Z,1002.75
2019-05-21T10:53:58.440Z,1002.81
2019-05-21T10:54:58.448Z,1002.85
2019-05-21T10:55:58.470Z,1002.86
2019-05-21T10:56:58.509Z,1002.87
2019-05-21T10:57:58.535Z,1002.87
2019-05-21T10:58:58.574Z,1002.88
2019-05-21T10:59:58.612Z,1002.92
2019-05-21T11:00:58.645Z,1002.90
2019-05-21T11:01:58.673Z,1002.90
2019-05-21T11:02:58.718Z,1002.87
2019-05-21T11:03:58.744Z,1002.80
2019-05-21T11:04:58.781Z,1002.82
2019-05-21T11:06:09.560Z,1002.74
2019-05-21T11:06:58.840Z,1002.76
2019-05-21T11:08:22.261Z,1002.78
2019-05-21T11:08:58.900Z,1002.79
2019-05-21T11:09:58.963Z,1002.77
2019-05-21T11:10:58.968Z,1002.77
2019-05-21T11:11:59.018Z,1002.80
2019-05-21T11:12:59.054Z,1002.83
2019-05-21T11:13:59.070Z,1002.87
2019-05-21T11:14:59.101Z,1002.85
2019-05-21T11:15:59.135Z,1002.81
2019-05-21T11:16:59.174Z,1002.80
2019-05-21T11:18:10.632Z,1002.79
2019-05-21T11:18:59.230Z,1002.79
2019-05-21T11:19:59.272Z,1002.76
2019-05-21T11:20:59.299Z,1002.76
2019-05-21T11:21:59.327Z,1002.77
2019-05-21T11:22:59.375Z,1002.78
2019-05-21T11:23:59.414Z,1002.73
2019-05-21T11:24:59.419Z,1002.72
2019-05-21T11:25:59.446Z,1002.70
2019-05-21T11:26:59.489Z,1002.71
2019-05-21T11:27:59.509Z,1002.72
2019-05-21T11:28:59.558Z,1002.72
2019-05-21T11:29:59.572Z,1002.74
2019-05-21T11:30:59.609Z,1002.76
2019-05-21T11:31:59.640Z,1002.72
2019-05-21T11:32:59.666Z,1002.74
2019-05-21T11:33:59.698Z,1002.72
2019-05-21T11:34:59.740Z,1002.69
2019-05-21T11:35:59.769Z,1002.70
2019-05-21T11:36:59.783Z,1002.71
2019-05-21T11:37:59.839Z,1002.72
2019-05-21T11:38:59.845Z,1002.69
2019-05-21T11:39:59.891Z,1002.67
2019-05-21T11:40:59.953Z,1002.65
2019-05-21T11:41:59.938Z,1002.64
2019-05-21T11:42:59.966Z,1002.66
2019-05-21T11:44:00.000Z,1002.68
2019-05-21T11:45:00.033Z,1002.69
2019-05-21T11:46:03.021Z,1002.72
2019-05-21T11:47:00.094Z,1002.70
2019-05-21T11:48:00.133Z,1002.72
2019-05-21T11:49:00.146Z,1002.74
2019-05-21T11:50:00.187Z,1002.70
2019-05-21T11:51:00.207Z,1002.75
2019-05-21T11:52:00.237Z,1002.75
2019-05-21T11:53:00.268Z,1002.76
2019-05-21T11:54:00.302Z,1002.73
2019-05-21T11:55:00.354Z,1002.71
2019-05-21T11:56:00.354Z,1002.72
2019-05-21T11:57:00.440Z,1002.74
2019-05-21T11:58:00.413Z,1002.72
2019-05-21T11:59:00.448Z,1002.71
2019-05-21T12:00:00.473Z,1002.73
2019-05-21T12:01:00.513Z,1002.76
2019-05-21T12:02:00.568Z,1002.76
2019-05-21T12:03:00.571Z,1002.73
2019-05-21T12:04:00.596Z,1002.73
2019-05-21T12:05:00.620Z,1002.71
2019-05-21T12:06:00.661Z,1002.72
2019-05-21T12:07:03.219Z,1002.73
2019-05-21T12:08:00.709Z,1002.71